sensor_id;sensor_type;location;lat;lon;timestamp;P1;durP1;ratioP1;P2;durP2;ratioP2
52798;SDS011;38667;42.872;74.622;2022-08-19T00:01:19;16.33;;;9.57;;
52798;SDS011;38667;42.872;74.622;2022-08-19T00:03:46;8.18;;;3.70;;
52798;SDS011;38667;42.872;74.622;2022-08-19T00:06:12;8.90;;;5.13;;
52798;SDS011;38667;42.872;74.622;2022-08-19T00:08:39;10.00;;;4.40;;
52798;SDS011;38667;42.872;74.622;2022-08-19T00:11:05;15.95;;;4.70;;
52798;SDS011;38667;42.872;74.622;2022-08-19T00:13:32;9.40;;;4.07;;
52798;SDS011;38667;42.872;74.622;2022-08-19T00:16:00;14.23;;;3.67;;
52798;SDS011;38667;42.872;74.622;2022-08-19T00:18:27;9.00;;;4.10;;
52798;SDS011;38667;42.872;74.622;2022-08-19T00:20:54;15.55;;;4.00;;
52798;SDS011;38667;42.872;74.622;2022-08-19T00:23:20;7.60;;;3.83;;
52798;SDS011;38667;42.872;74.622;2022-08-19T00:25:46;12.38;;;2.97;;
52798;SDS011;38667;42.872;74.622;2022-08-19T00:28:13;9.40;;;4.00;;
52798;SDS011;38667;42.872;74.622;2022-08-19T00:30:39;13.40;;;3.30;;
52798;SDS011;38667;42.872;74.622;2022-08-19T00:33:07;9.68;;;2.90;;
52798;SDS011;38667;42.872;74.622;2022-08-19T00:35:33;10.73;;;3.10;;
52798;SDS011;38667;42.872;74.622;2022-08-19T00:38:00;8.73;;;3.10;;
52798;SDS011;38667;42.872;74.622;2022-08-19T00:40:26;13.90;;;3.92;;
52798;SDS011;38667;42.872;74.622;2022-08-19T00:42:52;17.60;;;4.65;;
52798;SDS011;38667;42.872;74.622;2022-08-19T00:45:19;11.75;;;3.60;;
52798;SDS011;38667;42.872;74.622;2022-08-19T00:47:47;10.77;;;3.60;;
52798;SDS011;38667;42.872;74.622;2022-08-19T00:50:16;20.63;;;3.15;;
52798;SDS011;38667;42.872;74.622;2022-08-19T00:52:45;15.15;;;3.03;;
52798;SDS011;38667;42.872;74.622;2022-08-19T00:55:14;14.35;;;2.80;;
52798;SDS011;38667;42.872;74.622;2022-08-19T00:57:44;12.95;;;3.42;;
52798;SDS011;38667;42.872;74.622;2022-08-19T01:00:14;7.82;;;3.20;;
52798;SDS011;38667;42.872;74.622;2022-08-19T01:02:43;14.90;;;4.05;;
52798;SDS011;38667;42.872;74.622;2022-08-19T01:05:10;13.90;;;5.30;;
52798;SDS011;38667;42.872;74.622;2022-08-19T01:07:39;15.15;;;4.85;;
52798;SDS011;38667;42.872;74.622;2022-08-19T01:10:08;14.05;;;4.57;;
52798;SDS011;38667;42.872;74.622;2022-08-19T01:12:36;12.98;;;4.07;;
52798;SDS011;38667;42.872;74.622;2022-08-19T01:15:02;18.77;;;4.85;;
52798;SDS011;38667;42.872;74.622;2022-08-19T01:17:30;21.13;;;4.60;;
52798;SDS011;38667;42.872;74.622;2022-08-19T01:19:57;14.57;;;4.60;;
52798;SDS011;38667;42.872;74.622;2022-08-19T01:22:28;15.32;;;4.15;;
52798;SDS011;38667;42.872;74.622;2022-08-19T01:24:56;19.67;;;4.88;;
52798;SDS011;38667;42.872;74.622;2022-08-19T01:27:23;21.08;;;5.43;;
52798;SDS011;38667;42.872;74.622;2022-08-19T01:29:49;15.75;;;4.75;;
52798;SDS011;38667;42.872;74.622;2022-08-19T01:32:16;20.17;;;4.20;;
52798;SDS011;38667;42.872;74.622;2022-08-19T01:34:42;15.20;;;4.30;;
52798;SDS011;38667;42.872;74.622;2022-08-19T01:37:09;15.02;;;4.32;;
52798;SDS011;38667;42.872;74.622;2022-08-19T01:39:38;17.58;;;4.00;;
52798;SDS011;38667;42.872;74.622;2022-08-19T01:42:05;12.27;;;4.30;;
52798;SDS011;38667;42.872;74.622;2022-08-19T01:44:33;15.52;;;5.30;;
52798;SDS011;38667;42.872;74.622;2022-08-19T01:46:59;16.98;;;5.43;;
52798;SDS011;38667;42.872;74.622;2022-08-19T01:49:25;21.67;;;5.63;;
52798;SDS011;38667;42.872;74.622;2022-08-19T01:51:52;20.73;;;5.60;;
52798;SDS011;38667;42.872;74.622;2022-08-19T01:54:19;13.35;;;4.70;;
52798;SDS011;38667;42.872;74.622;2022-08-19T01:56:49;16.98;;;5.60;;
52798;SDS011;38667;42.872;74.622;2022-08-19T01:59:17;15.75;;;6.22;;
52798;SDS011;38667;42.872;74.622;2022-08-19T02:01:45;23.00;;;6.32;;
52798;SDS011;38667;42.872;74.622;2022-08-19T02:04:12;19.13;;;5.70;;
52798;SDS011;38667;42.872;74.622;2022-08-19T02:06:38;16.98;;;6.15;;
52798;SDS011;38667;42.872;74.622;2022-08-19T02:09:04;18.60;;;5.25;;
52798;SDS011;38667;42.872;74.622;2022-08-19T02:11:32;18.10;;;5.40;;
52798;SDS011;38667;42.872;74.622;2022-08-19T02:14:02;17.98;;;5.78;;
52798;SDS011;38667;42.872;74.622;2022-08-19T02:16:31;18.17;;;6.20;;
52798;SDS011;38667;42.872;74.622;2022-08-19T02:18:58;21.40;;;6.35;;
52798;SDS011;38667;42.872;74.622;2022-08-19T02:21:24;21.52;;;6.68;;
52798;SDS011;38667;42.872;74.622;2022-08-19T02:23:50;35.65;;;7.70;;
52798;SDS011;38667;42.872;74.622;2022-08-19T02:26:17;25.88;;;7.30;;
52798;SDS011;38667;42.872;74.622;2022-08-19T02:28:43;24.27;;;7.95;;
52798;SDS011;38667;42.872;74.622;2022-08-19T02:31:13;27.88;;;8.23;;
52798;SDS011;38667;42.872;74.622;2022-08-19T02:33:42;25.92;;;7.30;;
52798;SDS011;38667;42.872;74.622;2022-08-19T02:36:10;24.85;;;7.60;;
52798;SDS011;38667;42.872;74.622;2022-08-19T02:38:37;35.63;;;8.43;;
52798;SDS011;38667;42.872;74.622;2022-08-19T02:41:04;31.65;;;7.63;;
52798;SDS011;38667;42.872;74.622;2022-08-19T02:43:32;24.75;;;7.22;;
52798;SDS011;38667;42.872;74.622;2022-08-19T02:45:59;23.50;;;7.30;;
52798;SDS011;38667;42.872;74.622;2022-08-19T02:48:27;18.55;;;6.10;;
52798;SDS011;38667;42.872;74.622;2022-08-19T02:50:53;22.38;;;5.88;;
52798;SDS011;38667;42.872;74.622;2022-08-19T02:53:19;24.80;;;5.88;;
52798;SDS011;38667;42.872;74.622;2022-08-19T02:55:46;19.98;;;5.30;;
52798;SDS011;38667;42.872;74.622;2022-08-19T02:58:13;14.57;;;5.57;;
52798;SDS011;38667;42.872;74.622;2022-08-19T03:00:42;16.15;;;5.95;;
52798;SDS011;38667;42.872;74.622;2022-08-19T03:03:09;23.60;;;5.55;;
52798;SDS011;38667;42.872;74.622;2022-08-19T03:05:37;12.55;;;4.05;;
52798;SDS011;38667;42.872;74.622;2022-08-19T03:08:04;12.40;;;4.50;;
52798;SDS011;38667;42.872;74.622;2022-08-19T03:10:31;21.73;;;4.30;;
52798;SDS011;38667;42.872;74.622;2022-08-19T03:12:58;14.75;;;3.70;;
52798;SDS011;38667;42.872;74.622;2022-08-19T03:15:24;16.42;;;5.20;;
52798;SDS011;38667;42.872;74.622;2022-08-19T03:17:50;14.38;;;4.28;;
52798;SDS011;38667;42.872;74.622;2022-08-19T03:20:17;15.95;;;4.38;;
52798;SDS011;38667;42.872;74.622;2022-08-19T03:22:45;15.95;;;4.53;;
52798;SDS011;38667;42.872;74.622;2022-08-19T03:25:11;13.23;;;4.32;;
52798;SDS011;38667;42.872;74.622;2022-08-19T03:27:37;13.30;;;4.07;;
52798;SDS011;38667;42.872;74.622;2022-08-19T03:30:04;13.98;;;4.15;;
52798;SDS011;38667;42.872;74.622;2022-08-19T03:32:31;12.80;;;4.00;;
52798;SDS011;38667;42.872;74.622;2022-08-19T03:34:57;14.95;;;4.32;;
52798;SDS011;38667;42.872;74.622;2022-08-19T03:37:24;11.60;;;4.05;;
52798;SDS011;38667;42.872;74.622;2022-08-19T03:39:51;12.15;;;3.95;;
52798;SDS011;38667;42.872;74.622;2022-08-19T03:42:18;7.03;;;3.08;;
52798;SDS011;38667;42.872;74.622;2022-08-19T03:44:44;14.43;;;4.07;;
52798;SDS011;38667;42.872;74.622;2022-08-19T03:47:10;9.07;;;3.40;;
52798;SDS011;38667;42.872;74.622;2022-08-19T03:49:37;9.10;;;3.80;;
52798;SDS011;38667;42.872;74.622;2022-08-19T03:52:03;10.88;;;4.25;;
52798;SDS011;38667;42.872;74.622;2022-08-19T03:54:30;7.20;;;4.32;;
52798;SDS011;38667;42.872;74.622;2022-08-19T03:56:58;13.43;;;3.78;;
52798;SDS011;38667;42.872;74.622;2022-08-19T03:59:28;10.73;;;3.00;;
52798;SDS011;38667;42.872;74.622;2022-08-19T04:01:56;7.40;;;3.30;;
52798;SDS011;38667;42.872;74.622;2022-08-19T04:04:23;14.05;;;4.00;;
52798;SDS011;38667;42.872;74.622;2022-08-19T04:06:50;12.55;;;3.53;;
52798;SDS011;38667;42.872;74.622;2022-08-19T04:09:18;9.57;;;3.50;;
52798;SDS011;38667;42.872;74.622;2022-08-19T04:11:45;9.75;;;3.35;;
52798;SDS011;38667;42.872;74.622;2022-08-19T04:14:15;10.20;;;3.30;;
52798;SDS011;38667;42.872;74.622;2022-08-19T04:16:43;10.48;;;3.33;;
52798;SDS011;38667;42.872;74.622;2022-08-19T04:19:09;6.70;;;2.75;;
52798;SDS011;38667;42.872;74.622;2022-08-19T04:21:36;7.68;;;3.33;;
52798;SDS011;38667;42.872;74.622;2022-08-19T04:24:03;7.68;;;3.10;;
52798;SDS011;38667;42.872;74.622;2022-08-19T04:26:31;9.60;;;3.40;;
52798;SDS011;38667;42.872;74.622;2022-08-19T04:28:58;8.82;;;3.28;;
52798;SDS011;38667;42.872;74.622;2022-08-19T04:31:27;8.10;;;2.63;;
52798;SDS011;38667;42.872;74.622;2022-08-19T04:33:57;5.32;;;2.67;;
52798;SDS011;38667;42.872;74.622;2022-08-19T04:36:26;7.72;;;3.25;;
52798;SDS011;38667;42.872;74.622;2022-08-19T04:38:55;7.93;;;2.13;;
52798;SDS011;38667;42.872;74.622;2022-08-19T04:41:23;9.57;;;2.72;;
52798;SDS011;38667;42.872;74.622;2022-08-19T04:43:49;7.13;;;3.30;;
52798;SDS011;38667;42.872;74.622;2022-08-19T04:46:16;9.07;;;2.78;;
52798;SDS011;38667;42.872;74.622;2022-08-19T04:48:44;7.47;;;2.67;;
52798;SDS011;38667;42.872;74.622;2022-08-19T04:51:11;8.02;;;2.35;;
52798;SDS011;38667;42.872;74.622;2022-08-19T04:53:38;9.32;;;2.55;;
52798;SDS011;38667;42.872;74.622;2022-08-19T04:56:07;12.60;;;3.10;;
52798;SDS011;38667;42.872;74.622;2022-08-19T04:58:35;12.73;;;3.83;;
52798;SDS011;38667;42.872;74.622;2022-08-19T05:01:02;10.10;;;3.05;;
52798;SDS011;38667;42.872;74.622;2022-08-19T05:03:29;7.90;;;2.95;;
52798;SDS011;38667;42.872;74.622;2022-08-19T05:05:59;11.25;;;3.00;;
52798;SDS011;38667;42.872;74.622;2022-08-19T05:08:30;16.52;;;2.90;;
52798;SDS011;38667;42.872;74.622;2022-08-19T05:10:56;5.90;;;2.83;;
52798;SDS011;38667;42.872;74.622;2022-08-19T05:13:23;7.55;;;2.30;;
52798;SDS011;38667;42.872;74.622;2022-08-19T05:15:53;9.77;;;2.65;;
52798;SDS011;38667;42.872;74.622;2022-08-19T05:18:20;7.45;;;2.45;;
52798;SDS011;38667;42.872;74.622;2022-08-19T05:20:46;7.32;;;2.17;;
52798;SDS011;38667;42.872;74.622;2022-08-19T05:23:14;4.32;;;1.90;;
52798;SDS011;38667;42.872;74.622;2022-08-19T05:25:40;4.22;;;2.03;;
52798;SDS011;38667;42.872;74.622;2022-08-19T05:28:07;7.95;;;1.60;;
52798;SDS011;38667;42.872;74.622;2022-08-19T05:30:33;5.40;;;1.85;;
52798;SDS011;38667;42.872;74.622;2022-08-19T05:33:00;4.80;;;1.63;;
52798;SDS011;38667;42.872;74.622;2022-08-19T05:35:26;5.47;;;1.60;;
52798;SDS011;38667;42.872;74.622;2022-08-19T05:37:53;5.18;;;1.95;;
52798;SDS011;38667;42.872;74.622;2022-08-19T05:40:21;11.15;;;2.90;;
52798;SDS011;38667;42.872;74.622;2022-08-19T05:42:47;8.00;;;4.57;;
52798;SDS011;38667;42.872;74.622;2022-08-19T05:45:13;12.32;;;5.10;;
52798;SDS011;38667;42.872;74.622;2022-08-19T05:47:40;18.90;;;4.88;;
52798;SDS011;38667;42.872;74.622;2022-08-19T05:50:07;11.88;;;5.30;;
52798;SDS011;38667;42.872;74.622;2022-08-19T05:52:34;9.15;;;4.10;;
52798;SDS011;38667;42.872;74.622;2022-08-19T05:55:03;5.70;;;3.55;;
52798;SDS011;38667;42.872;74.622;2022-08-19T05:57:31;7.63;;;3.35;;
52798;SDS011;38667;42.872;74.622;2022-08-19T05:59:58;10.60;;;3.33;;
52798;SDS011;38667;42.872;74.622;2022-08-19T06:02:24;7.43;;;3.90;;
52798;SDS011;38667;42.872;74.622;2022-08-19T06:04:50;6.32;;;3.00;;
52798;SDS011;38667;42.872;74.622;2022-08-19T06:07:17;5.75;;;2.35;;
52798;SDS011;38667;42.872;74.622;2022-08-19T06:09:43;8.25;;;2.72;;
52798;SDS011;38667;42.872;74.622;2022-08-19T06:12:09;7.80;;;2.30;;
52798;SDS011;38667;42.872;74.622;2022-08-19T06:14:37;7.03;;;2.10;;
52798;SDS011;38667;42.872;74.622;2022-08-19T06:17:04;5.53;;;2.00;;
52798;SDS011;38667;42.872;74.622;2022-08-19T06:19:30;6.75;;;2.40;;
52798;SDS011;38667;42.872;74.622;2022-08-19T06:21:57;10.77;;;2.20;;
52798;SDS011;38667;42.872;74.622;2022-08-19T06:24:25;5.50;;;1.90;;
52798;SDS011;38667;42.872;74.622;2022-08-19T06:26:53;5.63;;;1.88;;
52798;SDS011;38667;42.872;74.622;2022-08-19T06:29:21;6.18;;;1.77;;
52798;SDS011;38667;42.872;74.622;2022-08-19T06:31:51;13.50;;;1.92;;
52798;SDS011;38667;42.872;74.622;2022-08-19T06:34:19;6.57;;;1.70;;
52798;SDS011;38667;42.872;74.622;2022-08-19T06:36:46;3.20;;;1.35;;
52798;SDS011;38667;42.872;74.622;2022-08-19T06:39:14;6.43;;;2.08;;
52798;SDS011;38667;42.872;74.622;2022-08-19T06:41:43;5.32;;;1.70;;
52798;SDS011;38667;42.872;74.622;2022-08-19T06:44:11;4.88;;;1.80;;
52798;SDS011;38667;42.872;74.622;2022-08-19T06:46:38;3.35;;;1.60;;
52798;SDS011;38667;42.872;74.622;2022-08-19T06:49:07;5.47;;;1.55;;
52798;SDS011;38667;42.872;74.622;2022-08-19T06:51:34;7.97;;;1.30;;
52798;SDS011;38667;42.872;74.622;2022-08-19T06:54:00;4.15;;;1.42;;
52798;SDS011;38667;42.872;74.622;2022-08-19T06:56:30;3.30;;;1.23;;
52798;SDS011;38667;42.872;74.622;2022-08-19T06:58:56;2.13;;;1.30;;
52798;SDS011;38667;42.872;74.622;2022-08-19T07:01:23;4.65;;;1.20;;
52798;SDS011;38667;42.872;74.622;2022-08-19T07:03:50;10.15;;;1.20;;
52798;SDS011;38667;42.872;74.622;2022-08-19T07:06:18;1.75;;;0.93;;
52798;SDS011;38667;42.872;74.622;2022-08-19T07:08:45;2.17;;;1.10;;
52798;SDS011;38667;42.872;74.622;2022-08-19T07:11:14;10.48;;;5.90;;
52798;SDS011;38667;42.872;74.622;2022-08-19T07:13:41;5.15;;;2.10;;
52798;SDS011;38667;42.872;74.622;2022-08-19T07:16:08;6.75;;;0.90;;
52798;SDS011;38667;42.872;74.622;2022-08-19T07:18:37;5.72;;;1.35;;
52798;SDS011;38667;42.872;74.622;2022-08-19T07:21:04;3.63;;;1.05;;
52798;SDS011;38667;42.872;74.622;2022-08-19T07:23:33;5.05;;;2.50;;
52798;SDS011;38667;42.872;74.622;2022-08-19T07:26:03;4.30;;;1.48;;
52798;SDS011;38667;42.872;74.622;2022-08-19T07:28:31;7.38;;;1.08;;
52798;SDS011;38667;42.872;74.622;2022-08-19T07:30:57;3.92;;;1.52;;
52798;SDS011;38667;42.872;74.622;2022-08-19T07:33:24;3.38;;;1.30;;
52798;SDS011;38667;42.872;74.622;2022-08-19T07:35:50;6.15;;;1.63;;
52798;SDS011;38667;42.872;74.622;2022-08-19T07:38:16;3.42;;;1.23;;
52798;SDS011;38667;42.872;74.622;2022-08-19T07:40:45;2.28;;;1.20;;
52798;SDS011;38667;42.872;74.622;2022-08-19T07:43:12;3.05;;;1.10;;
52798;SDS011;38667;42.872;74.622;2022-08-19T07:45:38;4.43;;;1.15;;
52798;SDS011;38667;42.872;74.622;2022-08-19T07:48:05;6.95;;;1.38;;
52798;SDS011;38667;42.872;74.622;2022-08-19T07:50:31;7.68;;;0.90;;
52798;SDS011;38667;42.872;74.622;2022-08-19T07:52:57;3.65;;;0.80;;
52798;SDS011;38667;42.872;74.622;2022-08-19T07:55:24;5.30;;;1.40;;
52798;SDS011;38667;42.872;74.622;2022-08-19T07:57:52;4.85;;;1.10;;
52798;SDS011;38667;42.872;74.622;2022-08-19T08:00:19;3.92;;;1.13;;
52798;SDS011;38667;42.872;74.622;2022-08-19T08:02:45;5.05;;;0.90;;
52798;SDS011;38667;42.872;74.622;2022-08-19T08:05:11;1.83;;;0.77;;
52798;SDS011;38667;42.872;74.622;2022-08-19T08:07:38;2.28;;;0.80;;
52798;SDS011;38667;42.872;74.622;2022-08-19T08:10:05;6.47;;;1.00;;
52798;SDS011;38667;42.872;74.622;2022-08-19T08:12:33;6.63;;;0.90;;
52798;SDS011;38667;42.872;74.622;2022-08-19T08:15:06;13.38;;;2.20;;
52798;SDS011;38667;42.872;74.622;2022-08-19T08:17:34;5.40;;;1.00;;
52798;SDS011;38667;42.872;74.622;2022-08-19T08:20:00;15.75;;;2.30;;
52798;SDS011;38667;42.872;74.622;2022-08-19T08:22:28;3.53;;;1.10;;
52798;SDS011;38667;42.872;74.622;2022-08-19T08:24:54;5.68;;;1.17;;
52798;SDS011;38667;42.872;74.622;2022-08-19T08:27:21;2.10;;;0.95;;
52798;SDS011;38667;42.872;74.622;2022-08-19T08:29:47;4.35;;;1.05;;
52798;SDS011;38667;42.872;74.622;2022-08-19T08:32:15;2.80;;;1.02;;
52798;SDS011;38667;42.872;74.622;2022-08-19T08:34:41;3.38;;;1.17;;
52798;SDS011;38667;42.872;74.622;2022-08-19T08:37:08;2.63;;;0.90;;
52798;SDS011;38667;42.872;74.622;2022-08-19T08:39:34;4.25;;;0.80;;
52798;SDS011;38667;42.872;74.622;2022-08-19T08:42:01;5.75;;;1.00;;
52798;SDS011;38667;42.872;74.622;2022-08-19T08:44:39;1.27;;;0.60;;
52798;SDS011;38667;42.872;74.622;2022-08-19T08:47:12;2.10;;;1.05;;
52798;SDS011;38667;42.872;74.622;2022-08-19T08:49:45;3.53;;;0.57;;
52798;SDS011;38667;42.872;74.622;2022-08-19T08:52:16;3.13;;;0.82;;
52798;SDS011;38667;42.872;74.622;2022-08-19T08:54:48;2.83;;;0.70;;
52798;SDS011;38667;42.872;74.622;2022-08-19T08:57:19;2.58;;;0.95;;
52798;SDS011;38667;42.872;74.622;2022-08-19T08:59:50;0.82;;;0.70;;
52798;SDS011;38667;42.872;74.622;2022-08-19T09:02:20;2.20;;;0.85;;
52798;SDS011;38667;42.872;74.622;2022-08-19T09:04:46;1.83;;;0.85;;
52798;SDS011;38667;42.872;74.622;2022-08-19T09:07:16;2.03;;;0.80;;
52798;SDS011;38667;42.872;74.622;2022-08-19T09:09:50;3.30;;;0.80;;
52798;SDS011;38667;42.872;74.622;2022-08-19T09:12:19;3.28;;;1.08;;
52798;SDS011;38667;42.872;74.622;2022-08-19T09:14:57;2.85;;;1.08;;
52798;SDS011;38667;42.872;74.622;2022-08-19T09:17:28;4.55;;;1.00;;
52798;SDS011;38667;42.872;74.622;2022-08-19T09:19:56;2.75;;;0.90;;
52798;SDS011;38667;42.872;74.622;2022-08-19T09:22:25;36.88;;;1.48;;
52798;SDS011;38667;42.872;74.622;2022-08-19T09:24:51;4.53;;;1.30;;
52798;SDS011;38667;42.872;74.622;2022-08-19T09:27:18;5.93;;;1.10;;
52798;SDS011;38667;42.872;74.622;2022-08-19T09:29:44;1.70;;;1.10;;
52798;SDS011;38667;42.872;74.622;2022-08-19T09:32:11;4.30;;;1.27;;
52798;SDS011;38667;42.872;74.622;2022-08-19T09:34:38;3.30;;;0.93;;
52798;SDS011;38667;42.872;74.622;2022-08-19T09:37:05;2.38;;;0.82;;
52798;SDS011;38667;42.872;74.622;2022-08-19T09:39:31;2.67;;;0.90;;
52798;SDS011;38667;42.872;74.622;2022-08-19T09:41:58;3.35;;;1.00;;
52798;SDS011;38667;42.872;74.622;2022-08-19T09:44:24;2.58;;;0.93;;
52798;SDS011;38667;42.872;74.622;2022-08-19T09:46:51;3.28;;;0.88;;
52798;SDS011;38667;42.872;74.622;2022-08-19T09:49:19;2.70;;;1.10;;
52798;SDS011;38667;42.872;74.622;2022-08-19T09:51:48;3.40;;;0.73;;
52798;SDS011;38667;42.872;74.622;2022-08-19T09:54:15;4.47;;;0.80;;
52798;SDS011;38667;42.872;74.622;2022-08-19T09:56:42;1.98;;;0.73;;
52798;SDS011;38667;42.872;74.622;2022-08-19T09:59:08;5.28;;;0.80;;
52798;SDS011;38667;42.872;74.622;2022-08-19T10:01:35;1.48;;;0.65;;
52798;SDS011;38667;42.872;74.622;2022-08-19T10:04:02;1.38;;;1.10;;
52798;SDS011;38667;42.872;74.622;2022-08-19T10:06:28;3.08;;;1.00;;
52798;SDS011;38667;42.872;74.622;2022-08-19T10:08:56;1.38;;;0.60;;
52798;SDS011;38667;42.872;74.622;2022-08-19T10:11:23;3.15;;;1.10;;
52798;SDS011;38667;42.872;74.622;2022-08-19T10:13:49;1.45;;;0.85;;
52798;SDS011;38667;42.872;74.622;2022-08-19T10:16:16;3.80;;;1.08;;
52798;SDS011;38667;42.872;74.622;2022-08-19T10:18:44;4.15;;;1.40;;
52798;SDS011;38667;42.872;74.622;2022-08-19T10:21:11;2.50;;;1.35;;
52798;SDS011;38667;42.872;74.622;2022-08-19T10:23:39;6.97;;;1.30;;
52798;SDS011;38667;42.872;74.622;2022-08-19T10:26:09;3.88;;;1.17;;
52798;SDS011;38667;42.872;74.622;2022-08-19T10:28:36;2.47;;;1.20;;
52798;SDS011;38667;42.872;74.622;2022-08-19T10:31:03;3.15;;;1.10;;
52798;SDS011;38667;42.872;74.622;2022-08-19T10:33:30;5.25;;;1.52;;
52798;SDS011;38667;42.872;74.622;2022-08-19T10:36:01;3.35;;;1.10;;
52798;SDS011;38667;42.872;74.622;2022-08-19T10:38:29;2.72;;;1.05;;
52798;SDS011;38667;42.872;74.622;2022-08-19T10:40:55;2.63;;;0.90;;
52798;SDS011;38667;42.872;74.622;2022-08-19T10:43:33;1.30;;;0.93;;
52798;SDS011;38667;42.872;74.622;2022-08-19T10:45:59;4.55;;;1.10;;
52798;SDS011;38667;42.872;74.622;2022-08-19T10:48:25;8.10;;;1.10;;
52798;SDS011;38667;42.872;74.622;2022-08-19T10:50:52;3.63;;;1.20;;
52798;SDS011;38667;42.872;74.622;2022-08-19T10:53:18;4.70;;;1.27;;
52798;SDS011;38667;42.872;74.622;2022-08-19T10:55:44;2.75;;;1.10;;
52798;SDS011;38667;42.872;74.622;2022-08-19T10:58:11;3.38;;;1.17;;
52798;SDS011;38667;42.872;74.622;2022-08-19T11:00:40;3.97;;;1.30;;
52798;SDS011;38667;42.872;74.622;2022-08-19T11:03:06;4.75;;;1.80;;
52798;SDS011;38667;42.872;74.622;2022-08-19T11:05:33;4.97;;;1.38;;
52798;SDS011;38667;42.872;74.622;2022-08-19T11:07:59;5.40;;;1.30;;
52798;SDS011;38667;42.872;74.622;2022-08-19T11:10:26;5.70;;;2.28;;
52798;SDS011;38667;42.872;74.622;2022-08-19T11:12:52;6.10;;;1.33;;
52798;SDS011;38667;42.872;74.622;2022-08-19T11:15:18;2.97;;;1.25;;
52798;SDS011;38667;42.872;74.622;2022-08-19T11:17:46;3.38;;;1.73;;
52798;SDS011;38667;42.872;74.622;2022-08-19T11:20:13;5.13;;;1.92;;
52798;SDS011;38667;42.872;74.622;2022-08-19T11:22:40;3.95;;;1.90;;
52798;SDS011;38667;42.872;74.622;2022-08-19T11:25:07;12.85;;;2.35;;
52798;SDS011;38667;42.872;74.622;2022-08-19T11:27:37;5.82;;;1.90;;
52798;SDS011;38667;42.872;74.622;2022-08-19T11:30:04;4.45;;;1.30;;
52798;SDS011;38667;42.872;74.622;2022-08-19T11:32:31;5.75;;;1.60;;
52798;SDS011;38667;42.872;74.622;2022-08-19T11:34:59;5.43;;;1.50;;
52798;SDS011;38667;42.872;74.622;2022-08-19T11:37:25;6.45;;;1.33;;
52798;SDS011;38667;42.872;74.622;2022-08-19T11:39:52;4.75;;;1.35;;
52798;SDS011;38667;42.872;74.622;2022-08-19T11:42:18;5.00;;;1.40;;
52798;SDS011;38667;42.872;74.622;2022-08-19T11:44:44;5.60;;;1.33;;
52798;SDS011;38667;42.872;74.622;2022-08-19T11:47:13;2.78;;;1.17;;
52798;SDS011;38667;42.872;74.622;2022-08-19T11:49:39;4.85;;;1.17;;
52798;SDS011;38667;42.872;74.622;2022-08-19T11:52:07;2.78;;;1.38;;
52798;SDS011;38667;42.872;74.622;2022-08-19T11:54:34;5.25;;;1.30;;
52798;SDS011;38667;42.872;74.622;2022-08-19T11:57:02;5.05;;;1.20;;
52798;SDS011;38667;42.872;74.622;2022-08-19T11:59:29;4.45;;;1.38;;
52798;SDS011;38667;42.872;74.622;2022-08-19T12:01:55;6.72;;;1.35;;
52798;SDS011;38667;42.872;74.622;2022-08-19T12:04:21;1.98;;;1.10;;
52798;SDS011;38667;42.872;74.622;2022-08-19T12:06:48;3.08;;;1.42;;
52798;SDS011;38667;42.872;74.622;2022-08-19T12:09:16;3.20;;;1.00;;
52798;SDS011;38667;42.872;74.622;2022-08-19T12:11:42;4.72;;;0.95;;
52798;SDS011;38667;42.872;74.622;2022-08-19T12:14:09;5.28;;;1.20;;
52798;SDS011;38667;42.872;74.622;2022-08-19T12:16:37;6.15;;;1.33;;
52798;SDS011;38667;42.872;74.622;2022-08-19T12:19:03;3.15;;;1.20;;
52798;SDS011;38667;42.872;74.622;2022-08-19T12:21:31;5.72;;;1.08;;
52798;SDS011;38667;42.872;74.622;2022-08-19T12:23:59;2.55;;;0.98;;
52798;SDS011;38667;42.872;74.622;2022-08-19T12:26:29;3.72;;;1.00;;
52798;SDS011;38667;42.872;74.622;2022-08-19T12:28:56;2.45;;;0.80;;
52798;SDS011;38667;42.872;74.622;2022-08-19T12:31:23;2.88;;;1.30;;
52798;SDS011;38667;42.872;74.622;2022-08-19T12:33:50;2.85;;;1.05;;
52798;SDS011;38667;42.872;74.622;2022-08-19T12:36:16;5.60;;;1.23;;
52798;SDS011;38667;42.872;74.622;2022-08-19T12:38:42;2.50;;;1.20;;
52798;SDS011;38667;42.872;74.622;2022-08-19T12:41:09;6.15;;;1.25;;
52798;SDS011;38667;42.872;74.622;2022-08-19T12:43:38;10.52;;;1.30;;
52798;SDS011;38667;42.872;74.622;2022-08-19T12:46:05;4.30;;;1.27;;
52798;SDS011;38667;42.872;74.622;2022-08-19T12:48:32;4.97;;;1.23;;
52798;SDS011;38667;42.872;74.622;2022-08-19T12:50:58;3.20;;;1.20;;
52798;SDS011;38667;42.872;74.622;2022-08-19T12:53:25;4.45;;;1.80;;
52798;SDS011;38667;42.872;74.622;2022-08-19T12:55:54;4.38;;;1.35;;
52798;SDS011;38667;42.872;74.622;2022-08-19T12:58:21;6.55;;;1.60;;
52798;SDS011;38667;42.872;74.622;2022-08-19T13:00:49;6.07;;;1.40;;
52798;SDS011;38667;42.872;74.622;2022-08-19T13:03:15;10.20;;;1.65;;
52798;SDS011;38667;42.872;74.622;2022-08-19T13:05:41;4.07;;;1.85;;
52798;SDS011;38667;42.872;74.622;2022-08-19T13:08:08;3.17;;;1.40;;
52798;SDS011;38667;42.872;74.622;2022-08-19T13:10:37;6.20;;;1.40;;
52798;SDS011;38667;42.872;74.622;2022-08-19T13:13:04;6.05;;;1.40;;
52798;SDS011;38667;42.872;74.622;2022-08-19T13:15:32;8.80;;;1.92;;
52798;SDS011;38667;42.872;74.622;2022-08-19T13:18:02;4.72;;;1.88;;
52798;SDS011;38667;42.872;74.622;2022-08-19T13:20:28;4.93;;;1.73;;
52798;SDS011;38667;42.872;74.622;2022-08-19T13:22:55;6.25;;;1.40;;
52798;SDS011;38667;42.872;74.622;2022-08-19T13:25:21;4.80;;;1.88;;
52798;SDS011;38667;42.872;74.622;2022-08-19T13:27:48;5.85;;;1.45;;
52798;SDS011;38667;42.872;74.622;2022-08-19T13:30:15;7.13;;;1.70;;
52798;SDS011;38667;42.872;74.622;2022-08-19T13:32:42;4.53;;;1.40;;
52798;SDS011;38667;42.872;74.622;2022-08-19T13:35:10;6.75;;;1.70;;
52798;SDS011;38667;42.872;74.622;2022-08-19T13:37:36;4.85;;;1.75;;
52798;SDS011;38667;42.872;74.622;2022-08-19T13:40:03;5.20;;;1.98;;
52798;SDS011;38667;42.872;74.622;2022-08-19T13:42:30;5.22;;;2.22;;
52798;SDS011;38667;42.872;74.622;2022-08-19T13:44:57;5.43;;;2.15;;
52798;SDS011;38667;42.872;74.622;2022-08-19T13:47:23;3.78;;;1.50;;
52798;SDS011;38667;42.872;74.622;2022-08-19T13:49:50;6.93;;;2.40;;
52798;SDS011;38667;42.872;74.622;2022-08-19T13:52:17;6.05;;;2.13;;
52798;SDS011;38667;42.872;74.622;2022-08-19T13:54:44;6.97;;;2.83;;
52798;SDS011;38667;42.872;74.622;2022-08-19T13:57:10;6.00;;;3.15;;
52798;SDS011;38667;42.872;74.622;2022-08-19T13:59:38;11.20;;;2.90;;
52798;SDS011;38667;42.872;74.622;2022-08-19T14:02:04;5.53;;;2.58;;
52798;SDS011;38667;42.872;74.622;2022-08-19T14:04:30;6.45;;;3.38;;
52798;SDS011;38667;42.872;74.622;2022-08-19T14:06:57;6.20;;;2.97;;
52798;SDS011;38667;42.872;74.622;2022-08-19T14:09:24;9.18;;;2.80;;
52798;SDS011;38667;42.872;74.622;2022-08-19T14:11:51;7.63;;;3.00;;
52798;SDS011;38667;42.872;74.622;2022-08-19T14:14:17;10.02;;;3.17;;
52798;SDS011;38667;42.872;74.622;2022-08-19T14:16:43;6.70;;;2.95;;
52798;SDS011;38667;42.872;74.622;2022-08-19T14:19:10;11.73;;;3.35;;
52798;SDS011;38667;42.872;74.622;2022-08-19T14:21:36;10.07;;;3.00;;
52798;SDS011;38667;42.872;74.622;2022-08-19T14:24:02;11.95;;;3.30;;
52798;SDS011;38667;42.872;74.622;2022-08-19T14:26:30;7.05;;;3.30;;
52798;SDS011;38667;42.872;74.622;2022-08-19T14:28:59;7.63;;;3.53;;
52798;SDS011;38667;42.872;74.622;2022-08-19T14:31:25;10.15;;;3.92;;